Time;durP1;ratioP1;P1;durP2;ratioP2;P2;SDS_P1;SDS_P2;PMS_P1;PMS_P2;Temp;Humidity;BMP_temperature;BMP_pressure;BME280_temperature;BME280_humidity;BME280_pressure;Samples;Min_cycle;Max_cycle;Signal;HPM_P1;HPM_P2
2022/10/06 00:02:05;;;;;;;;;;;28.10;99.90;;;;;;4992234;28;20424;-58
2022/10/06 00:04:31;;;;;;;;;;;28.10;99.90;;;;;;4992182;28;19913;-59
2022/10/06 00:06:56;;;;;;;;;;;28.00;99.90;;;;;;4992128;28;19905;-58
2022/10/06 00:09:22;;;;;;;;;;;28.00;99.90;;;;;;4991927;28;19914;-58
2022/10/06 00:11:47;;;;;;;;;;;28.10;99.90;;;;;;4991877;28;19909;-58
2022/10/06 00:14:13;;;;;;;;;;;28.00;99.90;;;;;;4992133;28;19996;-58
2022/10/06 00:16:39;;;;;;;;;;;28.00;99.90;;;;;;4990598;28;19955;-57
2022/10/06 00:19:04;;;;;;;;;;;28.00;99.90;;;;;;4991902;28;19913;-57
2022/10/06 00:21:30;;;;;;;;;;;28.00;99.90;;;;;;4992175;28;20053;-58
2022/10/06 00:23:55;;;;;;;;;;;28.00;99.90;;;;;;4991737;28;20573;-57
2022/10/06 00:26:21;;;;;;;;;;;28.00;99.90;;;;;;4991949;28;20001;-57
2022/10/06 00:28:47;;;;;;;;;;;27.90;99.90;;;;;;4991951;28;20012;-57
2022/10/06 00:31:13;;;;;;;;;;;27.90;99.90;;;;;;4991798;28;20318;-58
2022/10/06 00:33:38;;;;;;;;;;;27.90;99.90;;;;;;4991872;28;19909;-58
2022/10/06 00:36:04;;;;;;;;;;;27.90;99.90;;;;;;4993000;28;19912;-57
2022/10/06 00:38:30;;;;;;;;;;;27.90;99.90;;;;;;4995543;28;19960;-59
2022/10/06 00:40:55;;;;;;;;;;;27.90;99.90;;;;;;4995323;28;19905;-57
2022/10/06 00:43:39;;;;;;;;;;;27.90;99.90;;;;;;4995281;28;19906;-58
2022/10/06 00:46:06;;;;;;;;;;;27.90;99.90;;;;;;4995189;28;19910;-57
2022/10/06 00:48:32;;;;;;;;;;;27.90;99.90;;;;;;4995227;28;20384;-58
2022/10/06 00:50:58;;;;;;;;;;;27.90;99.90;;;;;;4995281;28;20004;-57
2022/10/06 00:53:26;;;;;;;;;;;27.80;99.90;;;;;;4995085;28;19912;-59
2022/10/06 00:55:53;;;;;;;;;;;27.80;99.90;;;;;;4994966;28;19906;-59
2022/10/06 00:58:19;;;;;;;;;;;27.80;99.90;;;;;;4994888;28;20369;-58
2022/10/06 01:00:46;;;;;;;;;;;27.80;99.90;;;;;;4995444;28;20366;-59
2022/10/06 01:03:16;;;;;;;;;;;27.80;99.90;;;;;;4994927;28;19957;-59
2022/10/06 01:05:47;;;;;;;;;;;27.80;99.90;;;;;;4994844;28;19906;-58
2022/10/06 01:08:13;;;;;;;;;;;27.80;99.90;;;;;;4994676;28;20001;-59
2022/10/06 01:10:38;;;;;;;;;;;27.80;99.90;;;;;;4994813;28;19965;-58
2022/10/06 01:13:05;;;;;;;;;;;27.80;99.90;;;;;;4994788;28;19984;-59
2022/10/06 01:15:32;;;;;;;;;;;27.70;99.90;;;;;;4994909;28;19989;-59
2022/10/06 01:18:04;;;;;;;;;;;27.80;99.90;;;;;;4994775;28;20333;-59
2022/10/06 01:20:30;;;;;;;;;;;27.80;99.90;;;;;;4994638;28;19905;-59
2022/10/06 01:23:08;;;;;;;;;;;27.70;99.90;;;;;;4994530;28;19929;-59
2022/10/06 01:25:35;;;;;;;;;;;27.70;99.90;;;;;;4994641;28;19906;-58
2022/10/06 01:28:01;;;;;;;;;;;27.70;99.90;;;;;;4994578;28;19914;-58
2022/10/06 01:30:39;;;;;;;;;;;27.70;99.90;;;;;;4994364;28;19952;-58
2022/10/06 01:33:05;;;;;;;;;;;27.70;99.90;;;;;;4994529;28;19906;-56
2022/10/06 01:35:31;;;;;;;;;;;27.70;99.90;;;;;;4994559;28;20001;-57
2022/10/06 01:37:59;;;;;;;;;;;27.70;99.90;;;;;;4992981;28;20345;-56
2022/10/06 01:40:27;;;;;;;;;;;27.70;99.90;;;;;;4994203;28;19952;-55
2022/10/06 01:42:53;;;;;;;;;;;27.60;99.90;;;;;;4994379;28;19906;-57
2022/10/06 01:45:19;;;;;;;;;;;27.60;99.90;;;;;;4994129;28;19906;-57
2022/10/06 01:47:45;;;;;;;;;;;27.60;99.90;;;;;;4993082;28;19914;-57
2022/10/06 01:50:10;;;;;;;;;;;27.60;99.90;;;;;;4994080;28;19909;-57
2022/10/06 01:52:36;;;;;;;;;;;27.60;99.90;;;;;;4994118;28;20353;-57
2022/10/06 01:55:02;;;;;;;;;;;27.60;99.90;;;;;;4994134;28;20387;-57
2022/10/06 01:57:28;;;;;;;;;;;27.60;99.90;;;;;;4993856;28;19905;-57
2022/10/06 01:59:53;;;;;;;;;;;27.60;99.90;;;;;;4992979;28;19906;-56
2022/10/06 02:02:19;;;;;;;;;;;27.60;99.90;;;;;;4993724;28;20297;-57
2022/10/06 02:04:45;;;;;;;;;;;27.60;99.90;;;;;;4993704;28;19995;-56
2022/10/06 02:07:10;;;;;;;;;;;27.60;99.90;;;;;;4993684;28;20424;-57
2022/10/06 02:09:36;;;;;;;;;;;27.50;99.90;;;;;;4993788;28;19921;-56
2022/10/06 02:12:01;;;;;;;;;;;27.50;99.90;;;;;;4993551;28;19905;-57
2022/10/06 02:14:28;;;;;;;;;;;27.50;99.90;;;;;;4993633;28;20652;-56
2022/10/06 02:16:53;;;;;;;;;;;27.50;99.90;;;;;;4993597;28;20254;-57
2022/10/06 02:19:19;;;;;;;;;;;27.50;99.90;;;;;;4992245;28;19912;-56
2022/10/06 02:21:45;;;;;;;;;;;27.50;99.90;;;;;;4993408;28;19906;-57
2022/10/06 02:24:10;;;;;;;;;;;27.50;99.90;;;;;;4993447;28;19906;-59
2022/10/06 02:26:36;;;;;;;;;;;27.50;99.90;;;;;;4993440;28;19940;-58
2022/10/06 02:29:02;;;;;;;;;;;27.50;99.90;;;;;;4993148;28;19921;-58
2022/10/06 02:31:27;;;;;;;;;;;27.50;99.90;;;;;;4993351;28;19913;-60
2022/10/06 02:33:53;;;;;;;;;;;27.40;99.90;;;;;;4993239;28;19906;-59
2022/10/06 02:36:19;;;;;;;;;;;27.50;99.90;;;;;;4993158;28;19912;-60
2022/10/06 02:38:44;;;;;;;;;;;27.40;99.90;;;;;;4993262;28;19906;-58
2022/10/06 02:41:10;;;;;;;;;;;27.40;99.90;;;;;;4993116;28;20359;-60
2022/10/06 02:43:36;;;;;;;;;;;27.40;99.90;;;;;;4993246;28;19910;-57
2022/10/06 02:46:03;;;;;;;;;;;27.40;99.90;;;;;;4992915;28;19912;-57
2022/10/06 02:48:29;;;;;;;;;;;27.40;99.90;;;;;;4992733;28;19918;-57
2022/10/06 02:50:55;;;;;;;;;;;27.40;99.90;;;;;;4992890;28;19967;-57
2022/10/06 02:53:20;;;;;;;;;;;27.40;99.90;;;;;;4992856;28;19906;-57
2022/10/06 02:55:46;;;;;;;;;;;27.40;99.90;;;;;;4992802;28;19905;-58
2022/10/06 02:58:11;;;;;;;;;;;27.40;99.90;;;;;;4992993;28;20408;-57
2022/10/06 03:00:37;;;;;;;;;;;27.40;99.90;;;;;;4993167;28;20313;-58
2022/10/06 03:03:03;;;;;;;;;;;27.40;99.90;;;;;;4992746;28;19968;-58
2022/10/06 03:05:29;;;;;;;;;;;27.40;99.90;;;;;;4992843;28;19925;-58
2022/10/06 03:07:54;;;;;;;;;;;27.40;99.90;;;;;;4992643;28;19914;-57
2022/10/06 03:10:20;;;;;;;;;;;27.30;99.90;;;;;;4992471;28;19906;-58
2022/10/06 03:12:46;;;;;;;;;;;27.30;99.90;;;;;;4992503;28;20036;-58
2022/10/06 03:15:11;;;;;;;;;;;27.40;99.90;;;;;;4992575;28;19910;-58
2022/10/06 03:17:37;;;;;;;;;;;27.30;99.90;;;;;;4992790;28;19911;-59
2022/10/06 03:20:02;;;;;;;;;;;27.30;99.90;;;;;;4992629;28;19960;-58
2022/10/06 03:22:28;;;;;;;;;;;27.30;99.90;;;;;;4992426;28;20346;-60
2022/10/06 03:24:54;;;;;;;;;;;27.30;99.90;;;;;;4991355;28;19906;-58
2022/10/06 03:27:19;;;;;;;;;;;27.30;99.90;;;;;;4991583;28;20021;-58
2022/10/06 03:29:45;;;;;;;;;;;27.30;99.90;;;;;;4992301;28;19913;-57
2022/10/06 03:32:10;;;;;;;;;;;27.30;99.90;;;;;;4992667;28;19913;-57
2022/10/06 03:34:36;;;;;;;;;;;27.20;99.90;;;;;;4992384;28;19956;-58
2022/10/06 03:37:02;;;;;;;;;;;27.30;99.90;;;;;;4992430;28;19909;-58
2022/10/06 03:39:27;;;;;;;;;;;27.20;99.90;;;;;;4992515;28;20016;-58
2022/10/06 03:41:53;;;;;;;;;;;27.20;99.90;;;;;;4992470;28;19905;-57
2022/10/06 03:44:20;;;;;;;;;;;27.20;99.90;;;;;;4992376;28;20336;-58
2022/10/06 03:46:46;;;;;;;;;;;27.20;99.90;;;;;;4992290;28;19906;-58
2022/10/06 03:49:12;;;;;;;;;;;27.20;99.90;;;;;;4992352;28;19914;-57
2022/10/06 03:51:39;;;;;;;;;;;27.20;99.90;;;;;;4992448;28;19999;-58
2022/10/06 03:54:06;;;;;;;;;;;27.20;99.90;;;;;;4992393;28;19906;-59
2022/10/06 03:56:39;;;;;;;;;;;27.20;99.90;;;;;;4992223;28;19976;-57
2022/10/06 04:01:46;;;;;;;;;;;27.20;99.90;;;;;;4971546;28;19957;-55
2022/10/06 04:04:12;;;;;;;;;;;27.20;99.90;;;;;;4972830;28;19913;-54
2022/10/06 04:06:39;;;;;;;;;;;27.20;99.90;;;;;;4972608;28;19906;-55
2022/10/06 04:09:06;;;;;;;;;;;27.20;99.90;;;;;;4972827;28;19957;-54
2022/10/06 04:11:32;;;;;;;;;;;27.10;99.90;;;;;;4974343;28;19906;-54
2022/10/06 04:13:59;;;;;;;;;;;27.20;99.90;;;;;;4976299;28;19944;-54
2022/10/06 04:16:26;;;;;;;;;;;27.20;99.90;;;;;;4976175;28;20343;-54
2022/10/06 04:18:53;;;;;;;;;;;27.10;99.90;;;;;;4976355;28;20325;-54
2022/10/06 04:21:19;;;;;;;;;;;27.10;99.90;;;;;;4976190;28;19906;-55
2022/10/06 04:23:45;;;;;;;;;;;27.10;99.90;;;;;;4976259;28;20281;-53
2022/10/06 04:26:13;;;;;;;;;;;27.10;99.90;;;;;;4976337;28;19902;-53
2022/10/06 04:28:39;;;;;;;;;;;27.10;99.90;;;;;;4975867;28;19925;-55
2022/10/06 04:31:10;;;;;;;;;;;27.10;99.90;;;;;;4975914;28;20434;-54
2022/10/06 04:33:36;;;;;;;;;;;27.10;99.90;;;;;;4976010;28;20369;-54
2022/10/06 04:36:03;;;;;;;;;;;27.10;99.90;;;;;;4975895;28;19954;-54
2022/10/06 04:38:31;;;;;;;;;;;27.10;99.90;;;;;;4975886;28;19906;-55
2022/10/06 04:41:02;;;;;;;;;;;27.00;99.90;;;;;;5007125;28;19949;-53
2022/10/06 04:43:28;;;;;;;;;;;27.00;99.90;;;;;;4975833;28;20001;-55
2022/10/06 04:45:57;;;;;;;;;;;27.00;99.90;;;;;;4975800;28;20008;-55
2022/10/06 04:48:23;;;;;;;;;;;27.00;99.90;;;;;;4975651;28;19914;-55
2022/10/06 04:50:59;;;;;;;;;;;27.00;99.90;;;;;;4975603;28;19906;-55
2022/10/06 04:53:25;;;;;;;;;;;27.00;99.90;;;;;;4975582;28;20354;-55
2022/10/06 04:56:01;;;;;;;;;;;27.00;99.90;;;;;;4975548;28;20365;-55
2022/10/06 04:58:34;;;;;;;;;;;27.00;99.90;;;;;;4974186;28;20350;-55
2022/10/06 05:01:00;;;;;;;;;;;27.00;99.90;;;;;;4975355;28;19918;-55
2022/10/06 05:03:29;;;;;;;;;;;27.00;99.90;;;;;;4975328;28;19910;-55
2022/10/06 05:06:04;;;;;;;;;;;26.90;99.90;;;;;;4975587;28;19906;-55
2022/10/06 05:08:30;;;;;;;;;;;26.90;99.90;;;;;;4975257;28;20384;-55
2022/10/06 05:11:03;;;;;;;;;;;26.90;99.90;;;;;;4975407;28;19906;-55
2022/10/06 05:13:29;;;;;;;;;;;26.90;99.90;;;;;;4975252;28;19961;-55
2022/10/06 05:15:58;;;;;;;;;;;26.90;99.90;;;;;;4975247;28;19906;-55
2022/10/06 05:18:24;;;;;;;;;;;26.90;99.90;;;;;;4975250;28;19906;-55
2022/10/06 05:20:55;;;;;;;;;;;26.90;99.90;;;;;;4975140;28;20369;-54
2022/10/06 05:23:22;;;;;;;;;;;26.90;99.90;;;;;;4974932;28;19993;-55
2022/10/06 05:25:51;;;;;;;;;;;26.90;99.90;;;;;;4975180;28;19957;-55
2022/10/06 05:28:17;;;;;;;;;;;26.90;99.90;;;;;;4975057;28;19925;-55
2022/10/06 05:30:53;;;;;;;;;;;26.90;99.90;;;;;;4975267;28;19906;-55
2022/10/06 05:33:18;;;;;;;;;;;26.80;99.90;;;;;;4989782;28;19906;-55
2022/10/06 05:35:50;;;;;;;;;;;26.90;99.90;;;;;;4974979;28;20261;-55
2022/10/06 05:38:16;;;;;;;;;;;26.90;99.90;;;;;;4989903;28;20277;-55
2022/10/06 05:40:42;;;;;;;;;;;26.80;99.90;;;;;;4974818;28;19906;-55
2022/10/06 05:43:07;;;;;;;;;;;26.80;99.90;;;;;;4974676;28;20017;-55
2022/10/06 05:45:33;;;;;;;;;;;26.80;99.90;;;;;;4974899;28;19961;-55
2022/10/06 05:47:58;;;;;;;;;;;26.80;99.90;;;;;;4973116;28;19914;-54
2022/10/06 05:50:24;;;;;;;;;;;26.80;99.90;;;;;;4974519;28;19913;-55
2022/10/06 05:52:49;;;;;;;;;;;26.80;99.90;;;;;;4974587;28;19929;-55
2022/10/06 05:55:15;;;;;;;;;;;26.80;99.90;;;;;;4974641;28;19906;-55
2022/10/06 05:57:41;;;;;;;;;;;26.80;99.90;;;;;;4974698;28;20278;-55
2022/10/06 06:00:06;;;;;;;;;;;26.80;99.90;;;;;;4974198;28;19926;-55
2022/10/06 06:02:32;;;;;;;;;;;26.80;99.90;;;;;;4974211;28;19906;-54
2022/10/06 06:04:58;;;;;;;;;;;26.80;99.90;;;;;;4974399;28;20005;-55
2022/10/06 06:07:23;;;;;;;;;;;26.80;99.90;;;;;;4974239;28;20354;-55
2022/10/06 06:09:49;;;;;;;;;;;26.80;99.90;;;;;;4974200;28;19918;-55
2022/10/06 06:12:15;;;;;;;;;;;26.80;99.90;;;;;;4974065;28;19953;-55
2022/10/06 06:17:24;;;;;;;;;;;26.70;99.90;;;;;;4974182;28;19913;-55
2022/10/06 06:19:50;;;;;;;;;;;26.70;99.90;;;;;;4973969;28;20321;-55
2022/10/06 06:22:15;;;;;;;;;;;26.70;99.90;;;;;;4973924;28;19910;-55
2022/10/06 06:24:41;;;;;;;;;;;26.70;99.90;;;;;;4973643;28;20373;-55
2022/10/06 06:27:07;;;;;;;;;;;26.70;99.90;;;;;;4973819;28;19913;-55
2022/10/06 06:29:32;;;;;;;;;;;26.70;99.90;;;;;;4973708;28;20373;-55
2022/10/06 06:31:58;;;;;;;;;;;26.70;99.90;;;;;;4973718;28;19910;-55
2022/10/06 06:34:24;;;;;;;;;;;26.70;99.90;;;;;;4973179;28;20354;-55
2022/10/06 06:36:52;;;;;;;;;;;26.70;99.90;;;;;;4973807;28;19913;-55
2022/10/06 06:39:18;;;;;;;;;;;26.70;99.90;;;;;;4973788;28;19913;-55
2022/10/06 06:41:45;;;;;;;;;;;26.70;99.90;;;;;;4973449;28;20389;-55
2022/10/06 06:44:10;;;;;;;;;;;26.70;99.90;;;;;;4973428;28;19906;-55
2022/10/06 06:46:37;;;;;;;;;;;26.70;99.90;;;;;;4973502;28;20318;-55
2022/10/06 06:49:03;;;;;;;;;;;26.70;99.90;;;;;;4973355;28;19921;-55
2022/10/06 06:51:33;;;;;;;;;;;26.70;99.90;;;;;;4973373;28;19961;-55
2022/10/06 06:54:01;;;;;;;;;;;26.70;99.90;;;;;;4973175;28;20249;-55
2022/10/06 06:56:27;;;;;;;;;;;26.70;99.90;;;;;;4973320;28;19912;-55
2022/10/06 06:58:52;;;;;;;;;;;26.70;99.90;;;;;;4973113;28;19913;-55
2022/10/06 07:01:19;;;;;;;;;;;26.70;99.90;;;;;;4973185;28;19922;-55
2022/10/06 07:03:47;;;;;;;;;;;26.70;99.90;;;;;;4973100;28;19997;-55
2022/10/06 07:06:15;;;;;;;;;;;26.70;99.90;;;;;;4973174;28;19912;-55
2022/10/06 07:08:41;;;;;;;;;;;26.70;99.90;;;;;;4973072;28;19968;-55
2022/10/06 07:11:33;;;;;;;;;;;26.70;99.90;;;;;;4973110;28;20361;-55
2022/10/06 07:14:03;;;;;;;;;;;26.70;99.90;;;;;;4970044;28;20377;-55
2022/10/06 07:27:28;;;;;;;;;;;26.70;99.90;;;;;;4973197;28;19932;-55
2022/10/06 07:29:55;;;;;;;;;;;26.70;99.90;;;;;;5004058;28;20289;-54
2022/10/06 07:32:21;;;;;;;;;;;26.80;99.90;;;;;;4973021;28;20354;-55
2022/10/06 07:34:47;;;;;;;;;;;26.80;99.90;;;;;;4972976;28;19913;-55
2022/10/06 07:37:13;;;;;;;;;;;26.80;99.90;;;;;;4973093;28;19914;-55
2022/10/06 07:39:38;;;;;;;;;;;26.80;99.90;;;;;;4972789;28;19909;-55
2022/10/06 07:42:12;;;;;;;;;;;26.80;99.90;;;;;;4972699;28;19917;-58
2022/10/06 07:44:38;;;;;;;;;;;26.80;99.90;;;;;;4972645;28;19909;-55
2022/10/06 07:47:04;;;;;;;;;;;26.80;99.90;;;;;;4975363;28;19906;-55
2022/10/06 07:49:29;;;;;;;;;;;26.80;99.90;;;;;;4976643;28;19914;-55
2022/10/06 07:51:55;;;;;;;;;;;26.80;99.90;;;;;;4976927;28;19913;-55
2022/10/06 07:54:21;;;;;;;;;;;26.90;99.90;;;;;;5008090;28;19906;-54
2022/10/06 07:56:47;;;;;;;;;;;26.90;99.90;;;;;;4976608;28;19913;-54
2022/10/06 07:59:12;;;;;;;;;;;26.90;99.90;;;;;;4976454;28;19906;-55
2022/10/06 08:01:38;;;;;;;;;;;26.90;99.90;;;;;;4976308;28;19973;-55
2022/10/06 08:04:05;;;;;;;;;;;26.90;99.90;;;;;;4976398;28;19906;-55
2022/10/06 08:06:31;;;;;;;;;;;27.00;99.90;;;;;;4976198;28;19906;-55
2022/10/06 08:08:57;;;;;;;;;;;27.00;99.90;;;;;;4976243;28;20346;-55
2022/10/06 08:11:23;;;;;;;;;;;27.00;99.90;;;;;;4976542;28;19910;-55
2022/10/06 08:13:50;;;;;;;;;;;27.00;99.90;;;;;;4976282;28;19973;-55
2022/10/06 08:16:21;;;;;;;;;;;27.00;99.90;;;;;;4976384;28;20083;-54
2022/10/06 08:18:52;;;;;;;;;;;27.10;99.90;;;;;;4976031;28;20000;-54
2022/10/06 08:21:19;;;;;;;;;;;27.10;99.90;;;;;;4976031;28;19956;-55
2022/10/06 08:23:45;;;;;;;;;;;27.00;99.90;;;;;;4976218;28;19929;-55
2022/10/06 08:26:12;;;;;;;;;;;27.10;99.90;;;;;;4976104;28;19906;-54
2022/10/06 08:28:38;;;;;;;;;;;27.10;99.90;;;;;;4975875;28;19941;-54
2022/10/06 08:31:05;;;;;;;;;;;27.10;99.90;;;;;;4975751;28;19906;-55
2022/10/06 08:33:31;;;;;;;;;;;27.10;99.90;;;;;;4975932;28;19913;-55
2022/10/06 08:36:07;;;;;;;;;;;27.10;99.90;;;;;;4975980;28;20322;-55
2022/10/06 08:38:34;;;;;;;;;;;27.10;99.90;;;;;;4975739;28;19913;-55
2022/10/06 08:41:00;;;;;;;;;;;27.10;99.90;;;;;;4975761;28;20393;-55
2022/10/06 08:43:26;;;;;;;;;;;27.10;99.90;;;;;;4975885;28;19914;-55
2022/10/06 08:45:58;;;;;;;;;;;27.10;99.90;;;;;;4975630;28;20370;-55
2022/10/06 08:48:27;;;;;;;;;;;27.10;99.90;;;;;;4975908;28;19914;-55
2022/10/06 08:50:57;;;;;;;;;;;27.10;99.90;;;;;;4975437;28;20133;-55
2022/10/06 08:53:34;;;;;;;;;;;27.20;99.90;;;;;;4975360;28;20281;-54
2022/10/06 08:56:17;;;;;;;;;;;27.20;99.90;;;;;;4975455;28;19968;-55
2022/10/06 08:58:53;;;;;;;;;;;27.20;99.90;;;;;;4975083;28;19913;-54
2022/10/06 09:01:23;;;;;;;;;;;27.20;99.90;;;;;;4975241;28;20045;-54
2022/10/06 09:03:51;;;;;;;;;;;27.20;99.90;;;;;;4975423;28;19910;-54
2022/10/06 09:06:16;;;;;;;;;;;27.20;99.90;;;;;;4975401;28;20395;-54
2022/10/06 09:08:52;;;;;;;;;;;27.20;99.90;;;;;;4975188;28;19957;-54
2022/10/06 09:11:23;;;;;;;;;;;27.20;99.90;;;;;;4975064;28;20273;-54
2022/10/06 09:13:52;;;;;;;;;;;27.30;99.90;;;;;;4975115;28;19910;-54
2022/10/06 09:16:20;;;;;;;;;;;27.30;99.90;;;;;;4975056;28;20329;-55
2022/10/06 09:18:48;;;;;;;;;;;27.30;99.90;;;;;;4975105;28;19913;-55
2022/10/06 09:21:18;;;;;;;;;;;27.30;99.90;;;;;;4975003;28;19906;-54
2022/10/06 09:23:49;;;;;;;;;;;27.30;99.90;;;;;;4975139;28;19905;-54
2022/10/06 09:26:16;;;;;;;;;;;27.30;99.90;;;;;;4974983;28;19906;-54
2022/10/06 09:28:45;;;;;;;;;;;27.30;99.90;;;;;;4974670;28;20001;-54
2022/10/06 09:31:24;;;;;;;;;;;27.30;99.90;;;;;;4974759;28;19945;-54
2022/10/06 09:33:53;;;;;;;;;;;27.30;99.90;;;;;;4974764;28;20025;-55
2022/10/06 09:36:18;;;;;;;;;;;27.30;99.90;;;;;;4974582;28;19906;-54
2022/10/06 09:38:54;;;;;;;;;;;27.30;99.90;;;;;;4974709;28;19913;-54
2022/10/06 09:41:25;;;;;;;;;;;27.40;99.90;;;;;;4974653;28;20444;-54
2022/10/06 09:43:54;;;;;;;;;;;27.40;99.90;;;;;;4974629;28;20893;-54
2022/10/06 09:46:25;;;;;;;;;;;27.40;99.90;;;;;;4974543;28;19910;-55
2022/10/06 09:49:04;;;;;;;;;;;27.40;99.90;;;;;;4974513;28;20266;-54
2022/10/06 09:51:32;;;;;;;;;;;27.40;99.90;;;;;;4974595;28;20068;-54
2022/10/06 09:54:09;;;;;;;;;;;27.40;99.90;;;;;;4974814;28;20239;-54
2022/10/06 09:56:39;;;;;;;;;;;27.40;99.90;;;;;;4974398;28;19914;-55
2022/10/06 09:59:14;;;;;;;;;;;27.50;99.90;;;;;;4974247;28;20001;-54
2022/10/06 10:01:40;;;;;;;;;;;27.50;99.90;;;;;;4974006;28;19949;-55
2022/10/06 10:04:11;;;;;;;;;;;27.50;99.90;;;;;;4974094;28;19910;-54
2022/10/06 10:06:37;;;;;;;;;;;27.50;99.90;;;;;;4974107;28;19988;-54
2022/10/06 10:09:20;;;;;;;;;;;27.50;99.90;;;;;;4973357;28;20020;-54
2022/10/06 10:12:26;;;;;;;;;;;27.60;99.90;;;;;;4974324;28;19906;-55
2022/10/06 10:14:53;;;;;;;;;;;27.60;99.90;;;;;;4974244;28;19906;-55
2022/10/06 10:17:21;;;;;;;;;;;27.60;99.90;;;;;;4974286;28;20273;-54
2022/10/06 10:19:53;;;;;;;;;;;27.70;99.90;;;;;;4973970;28;19913;-54
2022/10/06 10:22:22;;;;;;;;;;;27.70;99.90;;;;;;4973971;28;19977;-55
2022/10/06 10:25:03;;;;;;;;;;;27.70;99.90;;;;;;4973855;28;20381;-55
2022/10/06 10:27:36;;;;;;;;;;;27.70;99.90;;;;;;4973676;28;20347;-55
2022/10/06 10:30:09;;;;;;;;;;;27.70;99.90;;;;;;4973547;28;19914;-54
2022/10/06 10:32:49;;;;;;;;;;;27.80;99.90;;;;;;4973754;28;20321;-54
2022/10/06 10:35:27;;;;;;;;;;;27.80;99.90;;;;;;4973574;28;19906;-54
2022/10/06 10:38:13;;;;;;;;;;;27.80;99.90;;;;;;4973533;28;20018;-54
2022/10/06 10:40:49;;;;;;;;;;;27.80;99.90;;;;;;4973210;28;19910;-54
2022/10/06 10:43:21;;;;;;;;;;;27.90;99.90;;;;;;4973430;28;19906;-54
2022/10/06 10:45:49;;;;;;;;;;;27.90;99.90;;;;;;4973264;28;19913;-54
2022/10/06 10:48:21;;;;;;;;;;;27.90;99.90;;;;;;4973208;28;19921;-54
2022/10/06 10:50:59;;;;;;;;;;;28.00;99.90;;;;;;4973561;28;20002;-54
2022/10/06 10:53:24;;;;;;;;;;;28.00;99.90;;;;;;4973472;28;19945;-54
2022/10/06 10:55:51;;;;;;;;;;;28.00;99.90;;;;;;4973303;28;19906;-54
2022/10/06 10:58:29;;;;;;;;;;;28.10;99.90;;;;;;4973309;28;19960;-54
2022/10/06 11:00:58;;;;;;;;;;;28.10;99.90;;;;;;4973143;28;19925;-54
2022/10/06 11:03:24;;;;;;;;;;;28.10;99.90;;;;;;4973147;28;19906;-54
2022/10/06 11:05:55;;;;;;;;;;;28.20;99.90;;;;;;4973171;28;19912;-54
2022/10/06 11:08:41;;;;;;;;;;;28.20;99.90;;;;;;4973000;28;19924;-54
2022/10/06 11:11:14;;;;;;;;;;;28.20;99.90;;;;;;4962555;28;19906;-54
2022/10/06 11:13:44;;;;;;;;;;;28.30;99.90;;;;;;4973066;28;19910;-54
2022/10/06 11:16:14;;;;;;;;;;;28.30;99.90;;;;;;4972974;28;19969;-54
2022/10/06 11:18:52;;;;;;;;;;;28.30;99.90;;;;;;4972956;28;19969;-54
2022/10/06 11:21:33;;;;;;;;;;;28.30;99.90;;;;;;4972785;28;19906;-54
2022/10/06 11:24:02;;;;;;;;;;;28.40;99.90;;;;;;4972914;28;19910;-53
2022/10/06 11:27:07;;;;;;;;;;;28.40;99.90;;;;;;4972880;28;19910;-53
2022/10/06 11:29:38;;;;;;;;;;;28.40;99.90;;;;;;4913235;29;20279;-54
2022/10/06 11:32:25;;;;;;;;;;;28.50;99.90;;;;;;4913396;29;19907;-54
2022/10/06 11:34:51;;;;;;;;;;;28.50;99.90;;;;;;4952168;28;19999;-54
2022/10/06 11:37:21;;;;;;;;;;;28.50;99.90;;;;;;4972901;28;19989;-54
2022/10/06 11:39:52;;;;;;;;;;;28.50;99.90;;;;;;4972854;28;19929;-54
2022/10/06 11:42:29;;;;;;;;;;;28.60;99.90;;;;;;4972942;28;20251;-54
2022/10/06 11:45:02;;;;;;;;;;;28.60;99.90;;;;;;4972823;28;19913;-54
2022/10/06 11:47:43;;;;;;;;;;;28.60;99.90;;;;;;4972594;28;19910;-56
2022/10/06 11:50:32;;;;;;;;;;;28.70;99.90;;;;;;4972633;28;19914;-54
2022/10/06 11:52:58;;;;;;;;;;;28.70;99.90;;;;;;4964732;28;19990;-54
2022/10/06 11:55:25;;;;;;;;;;;28.80;99.90;;;;;;4972717;28;19906;-54
2022/10/06 11:58:10;;;;;;;;;;;28.70;99.90;;;;;;4972545;28;19906;-54
2022/10/06 12:00:36;;;;;;;;;;;28.80;99.90;;;;;;4972734;28;20290;-54
2022/10/06 12:03:20;;;;;;;;;;;28.80;99.90;;;;;;4972639;28;19906;-54
2022/10/06 12:05:46;;;;;;;;;;;28.80;99.90;;;;;;4972537;28;19913;-54
2022/10/06 12:08:11;;;;;;;;;;;28.80;99.90;;;;;;4972556;28;19914;-54
2022/10/06 12:10:46;;;;;;;;;;;28.90;99.90;;;;;;4987621;28;19913;-54
2022/10/06 12:13:12;;;;;;;;;;;28.90;99.90;;;;;;4972477;28;19902;-54
2022/10/06 12:15:47;;;;;;;;;;;28.90;99.90;;;;;;4972903;28;20329;-54
2022/10/06 12:18:12;;;;;;;;;;;29.00;99.90;;;;;;4972585;28;19914;-54
2022/10/06 12:21:05;;;;;;;;;;;29.00;99.90;;;;;;4972696;28;19906;-54
2022/10/06 12:24:03;;;;;;;;;;;29.00;99.90;;;;;;4972376;28;19993;-54
2022/10/06 12:26:44;;;;;;;;;;;29.00;99.90;;;;;;4939818;28;20396;-54
2022/10/06 12:29:33;;;;;;;;;;;29.00;99.90;;;;;;4972677;28;19918;-53
2022/10/06 12:32:07;;;;;;;;;;;29.10;99.90;;;;;;4945471;28;20362;-54
2022/10/06 12:34:36;;;;;;;;;;;29.10;99.90;;;;;;4976109;28;19912;-54
2022/10/06 12:37:21;;;;;;;;;;;29.10;99.90;;;;;;4975882;28;19905;-54
2022/10/06 12:39:46;;;;;;;;;;;29.20;99.90;;;;;;4975937;28;19906;-53
2022/10/06 12:42:23;;;;;;;;;;;29.20;99.90;;;;;;4974544;28;20005;-54
2022/10/06 12:44:50;;;;;;;;;;;29.20;99.90;;;;;;4975973;28;19906;-54
2022/10/06 12:47:19;;;;;;;;;;;29.20;99.90;;;;;;4975706;28;19905;-54
2022/10/06 12:49:47;;;;;;;;;;;29.20;99.90;;;;;;4975666;28;20326;-54
2022/10/06 12:52:27;;;;;;;;;;;29.30;99.90;;;;;;4975642;28;19913;-54
2022/10/06 12:55:05;;;;;;;;;;;29.20;99.90;;;;;;4975718;28;19906;-54
2022/10/06 12:57:43;;;;;;;;;;;29.30;99.90;;;;;;4975606;28;19906;-54
2022/10/06 13:00:21;;;;;;;;;;;29.30;99.90;;;;;;4975525;28;19925;-54
2022/10/06 13:02:46;;;;;;;;;;;29.40;99.90;;;;;;4975340;28;19906;-54
2022/10/06 13:05:13;;;;;;;;;;;29.40;99.90;;;;;;4975443;28;19906;-54
2022/10/06 13:07:57;;;;;;;;;;;29.40;99.90;;;;;;4975578;28;19906;-54
2022/10/06 13:10:23;;;;;;;;;;;29.40;99.90;;;;;;4975154;28;20440;-54
2022/10/06 13:12:50;;;;;;;;;;;29.40;99.90;;;;;;4975249;28;20005;-54
2022/10/06 13:15:20;;;;;;;;;;;29.50;99.90;;;;;;4975212;28;19945;-56
2022/10/06 13:17:48;;;;;;;;;;;29.50;99.90;;;;;;4975241;28;19906;-54
2022/10/06 13:20:21;;;;;;;;;;;29.50;99.90;;;;;;4975271;28;19913;-54
2022/10/06 13:23:07;;;;;;;;;;;29.50;99.90;;;;;;4975078;28;19906;-54
2022/10/06 13:25:34;;;;;;;;;;;29.50;99.90;;;;;;4944772;28;19906;-54
2022/10/06 13:28:03;;;;;;;;;;;29.60;99.90;;;;;;4974941;28;19921;-54
2022/10/06 13:30:29;;;;;;;;;;;29.60;99.90;;;;;;4974937;28;19941;-54
2022/10/06 13:32:55;;;;;;;;;;;29.60;99.90;;;;;;4975055;28;19970;-54
2022/10/06 13:35:23;;;;;;;;;;;29.60;99.90;;;;;;4974767;28;20281;-54
2022/10/06 13:37:49;;;;;;;;;;;29.60;99.90;;;;;;4973530;28;19917;-54
2022/10/06 13:40:15;;;;;;;;;;;29.70;99.90;;;;;;4974787;28;19906;-54
2022/10/06 13:42:44;;;;;;;;;;;29.70;99.90;;;;;;4974635;28;19913;-54
2022/10/06 13:45:13;;;;;;;;;;;29.70;99.90;;;;;;4974187;28;19910;-54
2022/10/06 13:47:39;;;;;;;;;;;29.70;99.90;;;;;;4974630;28;19906;-54
2022/10/06 13:50:13;;;;;;;;;;;29.70;99.90;;;;;;4974542;28;20350;-54
2022/10/06 13:52:42;;;;;;;;;;;29.80;99.90;;;;;;4974517;28;19906;-54
2022/10/06 13:55:21;;;;;;;;;;;29.80;99.90;;;;;;4974509;28;19948;-54
2022/10/06 13:58:04;;;;;;;;;;;29.80;99.90;;;;;;4974721;28;19985;-54
2022/10/06 14:00:56;;;;;;;;;;;29.90;99.90;;;;;;4972961;28;19922;-54
2022/10/06 14:03:22;;;;;;;;;;;29.80;99.90;;;;;;4967515;28;19910;-54
2022/10/06 14:05:48;;;;;;;;;;;29.90;99.90;;;;;;4974282;28;19913;-54
2022/10/06 14:08:13;;;;;;;;;;;29.90;99.90;;;;;;4974372;28;19996;-54
2022/10/06 14:10:39;;;;;;;;;;;29.90;99.90;;;;;;4974122;28;19945;-54
2022/10/06 14:13:06;;;;;;;;;;;30.00;99.90;;;;;;4974070;28;19917;-54
2022/10/06 14:15:36;;;;;;;;;;;30.00;99.90;;;;;;4974146;28;20325;-54
2022/10/06 14:18:03;;;;;;;;;;;30.00;99.90;;;;;;4973979;28;19928;-54
2022/10/06 14:20:34;;;;;;;;;;;30.00;99.90;;;;;;4974066;28;20366;-54
2022/10/06 14:23:00;;;;;;;;;;;30.00;99.90;;;;;;4973916;28;19910;-54
2022/10/06 14:25:25;;;;;;;;;;;30.00;99.90;;;;;;4974068;28;19961;-54
2022/10/06 14:27:51;;;;;;;;;;;30.00;99.90;;;;;;4973778;28;19906;-54
2022/10/06 14:30:17;;;;;;;;;;;30.00;99.90;;;;;;4973919;28;19993;-55
2022/10/06 14:32:42;;;;;;;;;;;30.10;99.90;;;;;;4974042;28;19906;-54
2022/10/06 14:35:10;;;;;;;;;;;30.10;99.90;;;;;;4973711;28;19952;-54
2022/10/06 14:37:36;;;;;;;;;;;30.10;99.90;;;;;;4973764;28;19906;-54
2022/10/06 14:40:01;;;;;;;;;;;30.10;99.90;;;;;;4973667;28;20317;-54
2022/10/06 14:42:27;;;;;;;;;;;30.10;99.90;;;;;;5004859;28;19913;-54
2022/10/06 14:44:52;;;;;;;;;;;30.20;99.90;;;;;;4973658;28;20141;-54